Time;durP1;ratioP1;P1;durP2;ratioP2;P2;SDS_P1;SDS_P2;PMS_P1;PMS_P2;Temp;Humidity;BMP_temperature;BMP_pressure;BME280_temperature;BME280_humidity;BME280_pressure;Samples;Min_cycle;Max_cycle;Signal;HPM_P1;HPM_P2
2020/12/29 00:00:16;;;;;;;2.45;1.00;;;;;;;-1.16;100.00;92787.56;1040576;28;20260;-75
2020/12/29 00:00:50;;;;;;;1.67;1.00;;;;;;;-1.13;100.00;92789.59;1040650;28;20013;-74
2020/12/29 00:01:29;;;;;;;1.42;1.02;;;;;;;-1.11;100.00;92782.31;1040431;28;20045;-75
2020/12/29 00:02:00;;;;;;;1.65;1.20;;;;;;;-1.08;100.00;92786.94;1040568;28;20265;-75
2020/12/29 00:02:30;;;;;;;1.30;1.00;;;;;;;-1.04;100.00;92784.56;1040464;28;20033;-73
2020/12/29 00:03:01;;;;;;;1.52;0.90;;;;;;;-1.03;100.00;92789.47;1040426;28;20381;-74
2020/12/29 00:03:32;;;;;;;3.40;1.20;;;;;;;-1.01;100.00;92796.97;1044322;28;20056;-76
2020/12/29 00:04:25;;;;;;;2.15;1.17;;;;;;;-0.98;100.00;92791.22;1044382;28;20013;-73
2020/12/29 00:04:55;;;;;;;1.33;0.95;;;;;;;-0.93;100.00;92792.97;1044477;28;20025;-72
2020/12/29 00:05:26;;;;;;;1.55;1.20;;;;;;;-0.92;100.00;92792.69;1041296;28;20264;-75
2020/12/29 00:05:56;;;;;;;2.15;1.20;;;;;;;-0.93;100.00;92792.97;1040622;28;20025;-73
2020/12/29 00:06:27;;;;;;;1.20;1.10;;;;;;;-0.91;100.00;92799.44;1040511;28;20021;-74
2020/12/29 00:06:57;;;;;;;1.20;1.10;;;;;;;-0.92;100.00;92795.28;1040530;28;20400;-74
2020/12/29 00:07:28;;;;;;;1.20;0.70;;;;;;;-0.87;100.00;92792.63;1040476;28;20032;-72
2020/12/29 00:07:59;;;;;;;2.22;1.20;;;;;;;-0.81;100.00;92803.72;1040574;28;20029;-74
2020/12/29 00:08:29;;;;;;;1.10;1.00;;;;;;;-0.78;99.97;92800.56;1040627;28;20025;-76
2020/12/29 00:08:59;;;;;;;0.80;0.80;;;;;;;-0.72;99.35;92809.81;1040629;28;20029;-73
2020/12/29 00:09:30;;;;;;;1.23;1.13;;;;;;;-0.72;99.82;92802.03;1040589;28;20035;-76
2020/12/29 00:10:01;;;;;;;1.33;1.20;;;;;;;-0.70;99.67;92806.94;1040566;28;20036;-75
2020/12/29 00:10:31;;;;;;;2.35;1.15;;;;;;;-0.74;100.00;92801.53;1040480;28;20021;-76
2020/12/29 00:11:02;;;;;;;1.15;1.05;;;;;;;-0.74;100.00;92805.97;1040646;28;20033;-73
2020/12/29 00:11:32;;;;;;;2.17;1.30;;;;;;;-0.78;100.00;92804.97;1040467;28;20385;-72
2020/12/29 00:12:03;;;;;;;2.22;1.25;;;;;;;-0.75;100.00;92813.00;1040614;28;20076;-74
2020/12/29 00:12:33;;;;;;;2.00;1.20;;;;;;;-0.77;100.00;92806.50;1040487;28;20385;-74
2020/12/29 00:13:04;;;;;;;1.77;1.05;;;;;;;-0.77;100.00;92801.31;1040558;28;20083;-75
2020/12/29 00:13:35;;;;;;;1.40;1.00;;;;;;;-0.80;100.00;92808.63;1040513;28;20392;-74
2020/12/29 00:14:06;;;;;;;1.60;1.20;;;;;;;-0.85;100.00;92807.94;1040590;28;20287;-75
2020/12/29 00:14:37;;;;;;;2.03;1.50;;;;;;;-0.82;100.00;92800.34;1040422;28;20021;-77
2020/12/29 00:15:07;;;;;;;1.50;1.20;;;;;;;-0.80;100.00;92800.06;1040619;28;20025;-74
2020/12/29 00:15:41;;;;;;;1.50;1.20;;;;;;;-0.82;100.00;92800.34;1040676;28;20124;-71
2020/12/29 00:16:11;;;;;;;1.65;1.30;;;;;;;-0.85;100.00;92800.16;1040254;28;20428;-77
2020/12/29 00:16:42;;;;;;;2.33;1.77;;;;;;;-0.85;100.00;92803.50;1040104;28;20244;-76
2020/12/29 00:17:13;;;;;;;1.58;1.17;;;;;;;-0.89;100.00;92799.94;1036232;28;20049;-73
2020/12/29 00:17:43;;;;;;;2.55;1.80;;;;;;;-0.89;100.00;92797.34;1036297;28;20014;-72
2020/12/29 00:18:13;;;;;;;1.55;1.20;;;;;;;-0.90;100.00;92810.59;1040397;28;20083;-77
2020/12/29 00:18:44;;;;;;;2.78;1.30;;;;;;;-0.94;100.00;92804.41;1040412;28;20087;-76
2020/12/29 00:19:20;;;;;;;2.38;1.50;;;;;;;-0.95;100.00;92801.06;1040716;28;20025;-77
2020/12/29 00:19:50;;;;;;;1.45;1.25;;;;;;;-1.00;100.00;92799.28;1040727;28;20547;-76
2020/12/29 00:20:21;;;;;;;1.65;1.38;;;;;;;-1.00;100.00;92801.09;1040326;28;20338;-74
2020/12/29 00:20:51;;;;;;;3.28;1.60;;;;;;;-1.01;100.00;92802.94;1040620;28;20026;-76
2020/12/29 00:21:22;;;;;;;2.85;1.42;;;;;;;-1.01;100.00;92800.34;1040373;28;20104;-74
2020/12/29 00:21:53;;;;;;;2.22;1.40;;;;;;;-0.97;100.00;92807.56;1040634;28;20021;-74
2020/12/29 00:22:24;;;;;;;1.65;1.30;;;;;;;-1.00;100.00;92801.88;1040639;28;20072;-75
2020/12/29 00:22:56;;;;;;;3.08;1.83;;;;;;;-1.02;100.00;92806.56;1040459;28;20025;-74
2020/12/29 00:23:27;;;;;;;1.67;1.25;;;;;;;-1.02;100.00;92806.56;1040490;28;20014;-75
2020/12/29 00:23:57;;;;;;;2.55;1.45;;;;;;;-1.01;100.00;92805.53;1040547;28;20299;-75
2020/12/29 00:24:28;;;;;;;1.80;1.40;;;;;;;-1.00;100.00;92807.06;1040531;28;20318;-72
2020/12/29 00:24:58;;;;;;;2.13;1.55;;;;;;;-0.97;100.00;92808.34;1040645;28;20029;-73
2020/12/29 00:25:29;;;;;;;1.70;1.45;;;;;;;-0.98;100.00;92811.97;1040562;28;20032;-75
2020/12/29 00:25:59;;;;;;;1.83;1.50;;;;;;;-0.99;100.00;92818.25;1040562;28;20104;-74
2020/12/29 00:26:30;;;;;;;1.33;1.10;;;;;;;-1.01;100.00;92808.13;1040519;28;20013;-73
2020/12/29 00:27:03;;;;;;;2.10;1.30;;;;;;;-1.07;100.00;92803.25;1040590;28;20478;-73
2020/12/29 00:27:34;;;;;;;2.25;1.48;;;;;;;-1.05;100.00;92809.75;1044352;28;20017;-73
2020/12/29 00:28:04;;;;;;;2.30;1.52;;;;;;;-1.09;100.00;92816.53;1044344;28;20272;-73
2020/12/29 00:28:35;;;;;;;2.42;1.67;;;;;;;-1.13;100.00;92815.56;1044338;28;20056;-72
2020/12/29 00:29:07;;;;;;;1.80;1.40;;;;;;;-1.14;100.00;92816.59;1044227;28;20032;-75
2020/12/29 00:29:39;;;;;;;2.35;1.75;;;;;;;-1.20;100.00;92812.50;1040315;28;20483;-73
2020/12/29 00:30:09;;;;;;;1.88;1.30;;;;;;;-1.23;100.00;92807.88;1044342;28;20286;-75
2020/12/29 00:30:40;;;;;;;3.25;1.85;;;;;;;-1.25;100.00;92812.56;1040109;28;20679;-73
2020/12/29 00:31:11;;;;;;;1.92;1.38;;;;;;;-1.25;100.00;92813.34;1040320;28;20021;-73
2020/12/29 00:31:41;;;;;;;2.25;1.13;;;;;;;-1.26;100.00;92811.78;1040216;28;20013;-73
2020/12/29 00:32:12;;;;;;;1.58;1.42;;;;;;;-1.29;100.00;92814.97;1040192;28;20359;-73
2020/12/29 00:32:42;;;;;;;1.40;1.30;;;;;;;-1.29;100.00;92816.75;1044230;28;20009;-72
2020/12/29 00:33:13;;;;;;;3.00;1.70;;;;;;;-1.30;100.00;92812.63;1044314;28;20017;-72
2020/12/29 00:33:44;;;;;;;1.30;1.20;;;;;;;-1.31;100.00;92811.88;1044230;28;20400;-71
2020/12/29 00:34:14;;;;;;;1.67;1.30;;;;;;;-1.33;100.00;92818.38;1044156;28;20017;-73
2020/12/29 00:34:45;;;;;;;2.03;1.70;;;;;;;-1.30;100.00;92815.22;1044276;28;20016;-73
2020/12/29 00:35:15;;;;;;;3.90;1.67;;;;;;;-1.32;100.00;92812.91;1040263;28;20029;-72
2020/12/29 00:35:46;;;;;;;2.67;1.30;;;;;;;-1.31;100.00;92813.66;1040236;28;20017;-71
2020/12/29 00:36:17;;;;;;;1.40;1.25;;;;;;;-1.31;100.00;92813.66;1040167;28;20425;-73
2020/12/29 00:36:51;;;;;;;1.60;1.45;;;;;;;-1.37;100.00;92810.34;1036351;28;20077;-69
2020/12/29 00:37:22;;;;;;;2.72;1.52;;;;;;;-1.41;100.00;92804.97;1036053;28;20276;-72
2020/12/29 00:37:52;;;;;;;1.73;1.25;;;;;;;-1.36;100.00;92816.34;1036011;28;20732;-69
2020/12/29 00:38:24;;;;;;;2.22;1.27;;;;;;;-1.34;100.00;92819.44;1032511;28;20014;-72
2020/12/29 00:38:54;;;;;;;1.48;1.35;;;;;;;-1.36;100.00;92822.28;1036193;28;20807;-74
2020/12/29 00:39:25;;;;;;;1.30;1.20;;;;;;;-1.43;100.00;92825.22;1036068;28;20333;-70
2020/12/29 00:39:55;;;;;;;1.63;1.52;;;;;;;-1.38;100.00;92824.41;1036204;28;20072;-71
2020/12/29 00:40:26;;;;;;;1.70;1.20;;;;;;;-1.41;100.00;92822.34;1040243;28;20060;-74
2020/12/29 00:40:56;;;;;;;1.20;1.10;;;;;;;-1.42;100.00;92823.41;1039832;28;20047;-72
2020/12/29 00:41:27;;;;;;;2.00;1.40;;;;;;;-1.43;100.00;92827.03;1040430;28;20021;-69
2020/12/29 00:41:57;;;;;;;2.35;1.70;;;;;;;-1.46;100.00;92825.78;1040374;28;20053;-73
2020/12/29 00:42:32;;;;;;;1.55;1.23;;;;;;;-1.40;100.00;92832.44;1040405;28;20109;-74
2020/12/29 00:43:02;;;;;;;2.22;1.27;;;;;;;-1.41;100.00;92827.53;1040459;28;20032;-74
2020/12/29 00:43:33;;;;;;;1.73;1.13;;;;;;;-1.42;100.00;92821.56;1040213;28;20624;-73
2020/12/29 00:44:03;;;;;;;1.52;1.23;;;;;;;-1.43;100.00;92822.63;1040489;28;20095;-74
2020/12/29 00:44:34;;;;;;;1.75;1.38;;;;;;;-1.45;100.00;92824.72;1040369;28;20036;-72
2020/12/29 00:45:05;;;;;;;1.40;1.30;;;;;;;-1.48;100.00;92822.69;1040512;28;20101;-72
2020/12/29 00:45:35;;;;;;;1.92;1.60;;;;;;;-1.47;100.00;92824.22;1040417;28;20021;-72
2020/12/29 00:46:06;;;;;;;1.85;1.40;;;;;;;-1.53;100.00;92819.38;1040444;28;20021;-73
2020/12/29 00:46:37;;;;;;;2.25;1.50;;;;;;;-1.56;100.00;92823.28;1040455;28;20079;-70
2020/12/29 00:47:08;;;;;;;1.38;1.27;;;;;;;-1.51;100.00;92823.22;1040424;28;20650;-73
2020/12/29 00:47:38;;;;;;;1.63;1.35;;;;;;;-1.51;100.00;92827.63;1040378;28;20025;-75
2020/12/29 00:48:09;;;;;;;1.70;1.40;;;;;;;-1.53;100.00;92827.16;1040512;28;20028;-71
2020/12/29 00:48:40;;;;;;;2.10;1.60;;;;;;;-1.52;100.00;92826.09;1044209;28;20055;-71
2020/12/29 00:49:11;;;;;;;1.85;1.33;;;;;;;-1.48;100.00;92824.50;1044252;28;20420;-70
2020/12/29 00:49:41;;;;;;;1.88;1.20;;;;;;;-1.51;100.00;92827.63;1044243;28;20021;-73
2020/12/29 00:50:13;;;;;;;2.03;1.48;;;;;;;-1.54;100.00;92823.78;1044061;28;20032;-74
2020/12/29 00:50:43;;;;;;;2.55;1.60;;;;;;;-1.59;100.00;92829.00;1044297;28;20115;-73
2020/12/29 00:51:16;;;;;;;2.45;1.65;;;;;;;-1.60;100.00;92830.84;1044241;28;20321;-72
2020/12/29 00:51:46;;;;;;;1.63;1.52;;;;;;;-1.58;100.00;92833.16;1044299;28;20061;-71
2020/12/29 00:52:17;;;;;;;1.80;1.48;;;;;;;-1.61;100.00;92834.47;1043874;28;20354;-71
2020/12/29 00:52:47;;;;;;;1.60;1.40;;;;;;;-1.64;100.00;92837.63;1040485;28;20472;-74
2020/12/29 00:53:21;;;;;;;1.63;1.50;;;;;;;-1.64;100.00;92829.06;1040304;28;20091;-72
2020/12/29 00:53:52;;;;;;;1.88;1.20;;;;;;;-1.65;100.00;92837.88;1040421;28;20311;-73
2020/12/29 00:54:23;;;;;;;1.67;1.30;;;;;;;-1.69;100.00;92831.72;1040391;28;20276;-73
2020/12/29 00:54:54;;;;;;;1.45;1.35;;;;;;;-1.74;100.00;92829.94;1044095;28;20376;-72
2020/12/29 00:55:25;;;;;;;1.45;1.20;;;;;;;-1.73;100.00;92839.25;1039470;28;20048;-74
2020/12/29 00:55:55;;;;;;;1.70;1.30;;;;;;;-1.73;100.00;92839.25;1040122;28;20749;-74
2020/12/29 00:56:26;;;;;;;1.38;1.23;;;;;;;-1.71;100.00;92831.22;1035941;28;20066;-73
2020/12/29 00:56:56;;;;;;;1.40;1.30;;;;;;;-1.74;100.00;92834.38;1036094;28;20088;-75
2020/12/29 00:57:27;;;;;;;1.95;1.30;;;;;;;-1.74;100.00;92832.53;1035997;28;20061;-71
2020/12/29 00:57:57;;;;;;;1.75;1.60;;;;;;;-1.70;100.00;92838.72;1036117;28;20038;-71
2020/12/29 00:58:28;;;;;;;1.92;1.73;;;;;;;-1.70;100.00;92836.13;1040140;28;20077;-71
2020/12/29 00:58:58;;;;;;;2.40;1.25;;;;;;;-1.68;100.00;92838.44;1040047;28;20041;-73
2020/12/29 00:59:30;;;;;;;1.65;1.23;;;;;;;-1.62;100.00;92839.94;1040406;28;20021;-70
2020/12/29 01:00:01;;;;;;;2.25;1.30;;;;;;;-1.60;100.00;92843.03;1040483;28;20102;-73
2020/12/29 01:00:31;;;;;;;1.42;1.10;;;;;;;-1.58;100.00;92843.53;1040432;28;20268;-73
2020/12/29 01:01:06;;;;;;;2.65;1.25;;;;;;;-1.58;100.00;92832.41;1040350;28;20017;-71
2020/12/29 01:01:36;;;;;;;3.05;1.48;;;;;;;-1.52;100.00;92834.66;1040336;28;20029;-72
2020/12/29 01:02:07;;;;;;;1.30;0.90;;;;;;;-1.48;100.00;92840.06;1040449;28;20264;-74
2020/12/29 01:02:38;;;;;;;1.27;1.05;;;;;;;-1.43;100.00;92840.78;1040292;28;20029;-74
2020/12/29 01:03:08;;;;;;;1.20;1.10;;;;;;;-1.42;100.00;92844.91;1040420;28;20022;-73
2020/12/29 01:03:39;;;;;;;1.20;1.10;;;;;;;-1.43;100.00;92837.41;1039998;28;20260;-72
2020/12/29 01:04:09;;;;;;;1.52;1.20;;;;;;;-1.41;100.00;92840.50;1040086;28;20060;-72
2020/12/29 01:04:40;;;;;;;1.33;1.10;;;;;;;-1.40;100.00;92848.00;1040087;28;20474;-70
2020/12/29 01:05:11;;;;;;;1.42;1.02;;;;;;;-1.37;100.00;92849.25;1040174;28;20064;-71
2020/12/29 01:05:44;;;;;;;1.25;1.10;;;;;;;-1.38;100.00;92860.69;1044110;28;20029;-74
2020/12/29 01:06:14;;;;;;;2.03;1.10;;;;;;;-1.35;100.00;92854.19;1040086;28;20336;-75
2020/12/29 01:06:45;;;;;;;1.92;1.15;;;;;;;-1.35;100.00;92864.56;1040106;28;20264;-73
2020/12/29 01:07:15;;;;;;;1.30;1.20;;;;;;;-1.37;100.00;92870.00;1040119;28;20018;-73
2020/12/29 01:07:46;;;;;;;1.42;1.20;;;;;;;-1.40;100.00;92873.19;1040239;28;20486;-71
2020/12/29 01:08:16;;;;;;;3.15;1.52;;;;;;;-1.42;100.00;92870.84;1044967;28;20025;-74
2020/12/29 01:08:47;;;;;;;3.42;2.50;;;;;;;-1.44;100.00;92869.59;1044989;28;20079;-69
2020/12/29 01:09:17;;;;;;;2.08;1.70;;;;;;;-1.56;100.00;92879.56;1044905;28;20023;-71
2020/12/29 01:09:48;;;;;;;4.32;1.90;;;;;;;-1.58;100.00;92877.25;1044812;28;20458;-73
2020/12/29 01:10:19;;;;;;;2.17;1.42;;;;;;;-1.54;100.00;92883.41;1041112;28;20013;-71
2020/12/29 01:10:51;;;;;;;2.00;1.55;;;;;;;-1.58;100.00;92882.44;1041271;28;20026;-71
2020/12/29 01:11:21;;;;;;;3.20;2.33;;;;;;;-1.62;100.00;92881.44;1041074;28;20022;-73
2020/12/29 01:11:52;;;;;;;2.88;1.95;;;;;;;-1.67;100.00;92881.47;1041100;28;20280;-71
2020/12/29 01:12:22;;;;;;;2.35;1.55;;;;;;;-1.65;100.00;92884.56;1040997;28;20417;-75
2020/12/29 01:12:53;;;;;;;3.03;1.60;;;;;;;-1.61;100.00;92880.38;1041184;28;20084;-72
2020/12/29 01:13:24;;;;;;;4.55;1.50;;;;;;;-1.64;100.00;92884.28;1041069;28;20477;-74
2020/12/29 01:13:54;;;;;;;2.88;1.60;;;;;;;-1.62;100.00;92881.44;1045068;28;20029;-71
2020/12/29 01:14:25;;;;;;;1.77;1.30;;;;;;;-1.63;100.00;92885.81;1044934;28;20066;-71
2020/12/29 01:14:55;;;;;;;2.75;1.58;;;;;;;-1.65;100.00;92887.16;1044868;28;20024;-74
2020/12/29 01:15:26;;;;;;;1.98;1.63;;;;;;;-1.62;100.00;92884.78;1044925;28;20409;-75
2020/12/29 01:15:57;;;;;;;2.22;1.60;;;;;;;-1.64;100.00;92889.47;1044928;28;20050;-73
2020/12/29 01:16:28;;;;;;;3.50;1.77;;;;;;;-1.60;100.00;92881.94;1044689;28;20708;-73
2020/12/29 01:16:58;;;;;;;2.30;1.52;;;;;;;-1.55;100.00;92884.47;1041107;28;20099;-76
2020/12/29 01:17:28;;;;;;;1.35;1.20;;;;;;;-1.48;100.00;92876.38;1041060;28;20022;-74
2020/12/29 01:18:05;;;;;;;1.80;1.27;;;;;;;-1.42;100.00;92883.81;1041286;28;20063;-74
2020/12/29 01:18:37;;;;;;;1.80;1.33;;;;;;;-1.40;100.00;92879.13;1041281;28;20095;-75
2020/12/29 01:19:07;;;;;;;1.02;0.90;;;;;;;-1.37;100.00;92877.03;1041086;28;20253;-71
2020/12/29 01:19:38;;;;;;;1.60;1.40;;;;;;;-1.38;100.00;92886.63;1040784;28;20741;-74
2020/12/29 01:20:08;;;;;;;2.20;1.60;;;;;;;-1.37;100.00;92877.03;1040753;28;20014;-75
2020/12/29 01:20:39;;;;;;;1.77;1.50;;;;;;;-1.37;100.00;92879.63;1040824;28;20009;-72
2020/12/29 01:21:10;;;;;;;2.60;1.42;;;;;;;-1.33;100.00;92878.78;1040743;28;20059;-71
2020/12/29 01:21:41;;;;;;;1.85;1.40;;;;;;;-1.30;100.00;92877.50;1044687;28;20028;-74
2020/12/29 01:22:11;;;;;;;1.58;1.30;;;;;;;-1.28;100.00;92878.75;1041050;28;20279;-73
2020/12/29 01:22:41;;;;;;;1.23;1.08;;;;;;;-1.26;100.00;92876.66;1044811;28;20032;-74
2020/12/29 01:23:12;;;;;;;1.20;1.10;;;;;;;-1.28;100.00;92877.97;1044905;28;20047;-74
2020/12/29 01:23:42;;;;;;;1.45;1.20;;;;;;;-1.30;100.00;92872.31;1044858;28;20024;-70
2020/12/29 01:24:13;;;;;;;1.73;1.13;;;;;;;-1.28;100.00;92873.56;1044856;28;20050;-73
2020/12/29 01:24:45;;;;;;;3.50;1.40;;;;;;;-1.30;100.00;92872.31;1041130;28;20032;-75
2020/12/29 01:25:15;;;;;;;1.55;1.27;;;;;;;-1.30;100.00;92877.50;1041147;28;20268;-71
2020/12/29 01:25:48;;;;;;;1.75;1.40;;;;;;;-1.30;100.00;92870.47;1041101;28;20118;-75
2020/12/29 01:26:24;;;;;;;1.50;1.40;;;;;;;-1.28;100.00;92870.97;1041108;28;20022;-71
2020/12/29 01:26:56;;;;;;;2.45;1.50;;;;;;;-1.28;100.00;92865.00;1044909;28;20589;-73
2020/12/29 01:27:27;;;;;;;1.83;1.40;;;;;;;-1.26;100.00;92865.50;1045000;28;20259;-70
2020/12/29 01:27:57;;;;;;;1.67;1.23;;;;;;;-1.27;100.00;92867.34;1044812;28;20278;-72
2020/12/29 01:28:28;;;;;;;1.30;1.20;;;;;;;-1.14;100.00;92860.69;1044332;28;20112;-73
2020/12/29 01:28:58;;;;;;;2.05;1.30;;;;;;;-1.12;100.00;92863.03;1044622;28;20021;-74
2020/12/29 01:29:29;;;;;;;1.13;1.02;;;;;;;-1.15;100.00;92861.75;1040961;28;20024;-71
2020/12/29 01:29:59;;;;;;;1.95;1.20;;;;;;;-1.11;100.00;92860.16;1041063;28;20033;-72
2020/12/29 01:30:30;;;;;;;2.45;1.40;;;;;;;-1.05;100.00;92863.44;1041092;28;20025;-72
2020/12/29 01:31:00;;;;;;;1.05;0.90;;;;;;;-1.04;100.00;92868.38;1040631;28;20612;-74
2020/12/29 01:31:31;;;;;;;3.75;1.52;;;;;;;-1.05;100.00;92858.25;1041149;28;20032;-71
2020/12/29 01:32:01;;;;;;;1.80;1.20;;;;;;;-1.05;100.00;92869.44;1040989;28;20021;-72
2020/12/29 01:32:32;;;;;;;1.35;1.17;;;;;;;-1.06;100.00;92867.88;1049110;28;20017;-74
2020/12/29 01:33:04;;;;;;;2.47;1.45;;;;;;;-1.06;100.00;92862.69;1040048;28;20025;-75
2020/12/29 01:33:34;;;;;;;1.38;1.20;;;;;;;-1.09;100.00;92863.25;1040785;28;20412;-72
2020/12/29 01:34:05;;;;;;;2.47;1.38;;;;;;;-1.09;100.00;92858.06;1040243;28;20272;-73
2020/12/29 01:34:35;;;;;;;1.73;1.30;;;;;;;-1.07;100.00;92858.56;1037092;28;20108;-73
2020/12/29 01:35:06;;;;;;;1.73;1.30;;;;;;;-1.08;100.00;92861.41;1044897;28;20478;-74
2020/12/29 01:35:36;;;;;;;1.80;1.35;;;;;;;-1.03;100.00;92856.16;1044842;28;20346;-73
2020/12/29 01:36:09;;;;;;;1.60;1.50;;;;;;;-1.02;100.00;92865.50;1044746;28;20024;-70
2020/12/29 01:36:40;;;;;;;2.88;1.27;;;;;;;-1.00;100.00;92855.59;1040677;28;20025;-75
2020/12/29 01:37:11;;;;;;;1.23;1.00;;;;;;;-1.01;100.00;92862.63;1040900;28;20620;-71
2020/12/29 01:37:44;;;;;;;1.42;1.20;;;;;;;-1.03;100.00;92863.94;1041067;28;20014;-74
2020/12/29 01:38:15;;;;;;;1.58;1.30;;;;;;;-1.00;100.00;92863.41;1044813;28;20021;-72
2020/12/29 01:38:46;;;;;;;1.63;1.20;;;;;;;-1.02;100.00;92863.66;1044902;28;20248;-72
2020/12/29 01:39:17;;;;;;;2.78;1.27;;;;;;;-1.05;100.00;92861.66;1044863;28;20025;-74
2020/12/29 01:39:50;;;;;;;1.63;1.25;;;;;;;-1.08;100.00;92862.19;1044177;28;20308;-72
2020/12/29 01:40:21;;;;;;;1.83;1.15;;;;;;;-1.09;100.00;92862.44;1041012;28;20044;-70
2020/12/29 01:40:58;;;;;;;1.30;1.20;;;;;;;-1.12;100.00;92863.78;1041020;28;20272;-75
2020/12/29 01:41:35;;;;;;;1.98;1.35;;;;;;;-1.12;100.00;92863.78;1044770;28;20078;-71
2020/12/29 01:42:10;;;;;;;1.45;1.05;;;;;;;-1.14;100.00;92865.13;1044955;28;20252;-71
2020/12/29 01:42:41;;;;;;;1.30;1.20;;;;;;;-1.14;100.00;92863.28;1044802;28;20263;-71
2020/12/29 01:43:11;;;;;;;1.27;1.02;;;;;;;-1.08;100.00;92864.78;1043166;28;20264;-71
2020/12/29 01:43:42;;;;;;;1.55;1.13;;;;;;;-1.06;100.00;92867.88;1040905;28;20029;-71
2020/12/29 01:44:19;;;;;;;1.38;1.08;;;;;;;-1.08;100.00;92861.41;1040990;28;20070;-75
2020/12/29 01:44:49;;;;;;;1.65;1.10;;;;;;;-1.08;100.00;92862.19;1041000;28;20085;-73
2020/12/29 01:45:20;;;;;;;1.33;1.23;;;;;;;-1.06;99.90;92862.69;1041002;28;20260;-74
2020/12/29 01:45:51;;;;;;;1.30;1.20;;;;;;;-1.04;99.52;92865.75;1041045;28;20071;-74
2020/12/29 01:46:22;;;;;;;1.40;1.30;;;;;;;-1.02;100.00;92862.91;1040918;28;20652;-74
2020/12/29 01:46:53;;;;;;;1.58;1.27;;;;;;;-1.01;99.96;92862.63;1040759;28;20025;-75
2020/12/29 01:47:23;;;;;;;4.53;1.30;;;;;;;-1.00;99.57;92861.56;1041045;28;20260;-75
2020/12/29 01:47:54;;;;;;;1.65;1.25;;;;;;;-1.04;99.72;92860.56;1044879;28;20070;-73
2020/12/29 01:48:25;;;;;;;1.90;0.98;;;;;;;-1.01;99.57;92864.47;1036546;28;20033;-73
2020/12/29 01:48:56;;;;;;;1.30;1.20;;;;;;;-1.02;99.31;92860.31;1036608;28;20022;-73
2020/12/29 01:49:26;;;;;;;2.15;1.30;;;;;;;-1.01;99.69;92865.22;1036605;28;20269;-71
2020/12/29 01:49:57;;;;;;;1.10;1.00;;;;;;;-1.02;99.41;92863.66;1036792;28;20030;-73
2020/12/29 01:50:27;;;;;;;1.63;1.20;;;;;;;-0.94;99.37;92864.88;1044709;28;20496;-70
2020/12/29 01:50:59;;;;;;;1.83;1.30;;;;;;;-0.94;99.44;92861.53;1040667;28;20029;-75
2020/12/29 01:51:29;;;;;;;1.25;1.15;;;;;;;-0.97;99.12;92860.25;1040515;28;20672;-73
2020/12/29 01:52:00;;;;;;;2.08;1.20;;;;;;;-0.96;99.32;92861.03;1040694;28;20021;-74
2020/12/29 01:52:31;;;;;;;1.77;1.17;;;;;;;-0.98;99.60;92857.94;1040725;28;20018;-71
2020/12/29 01:53:02;;;;;;;1.75;1.02;;;;;;;-1.03;99.48;92867.31;1036418;28;20030;-74
2020/12/29 01:53:33;;;;;;;1.50;1.20;;;;;;;-1.05;99.57;92858.25;1036626;28;20257;-74
2020/12/29 01:54:04;;;;;;;1.48;1.38;;;;;;;-1.12;99.45;92850.06;1036661;28;20264;-75
2020/12/29 01:54:35;;;;;;;1.58;1.25;;;;;;;-1.05;99.73;92859.03;1033271;28;20027;-75
2020/12/29 01:55:06;;;;;;;1.95;1.15;;;;;;;-1.06;100.00;92862.69;1040662;28;20776;-76
2020/12/29 01:55:37;;;;;;;1.27;1.13;;;;;;;-1.05;99.54;92859.03;1040642;28;20071;-74
2020/12/29 01:56:09;;;;;;;1.73;1.10;;;;;;;-1.04;100.00;92865.00;1040716;28;20302;-72
2020/12/29 01:56:40;;;;;;;1.48;1.38;;;;;;;-0.98;99.54;92863.13;1040976;28;20495;-72
2020/12/29 01:57:11;;;;;;;1.55;1.40;;;;;;;-1.03;99.34;92856.94;1040861;28;20797;-72
2020/12/29 01:57:41;;;;;;;1.23;1.13;;;;;;;-1.05;99.77;92853.84;1044731;28;20317;-72
2020/12/29 01:58:12;;;;;;;1.95;1.27;;;;;;;-1.05;99.91;92864.25;1044077;28;20537;-73
2020/12/29 01:58:43;;;;;;;2.13;1.30;;;;;;;-1.06;99.82;92854.13;1044663;28;20457;-75
2020/12/29 01:59:14;;;;;;;1.92;1.25;;;;;;;-1.05;99.80;92856.44;1040636;28;20481;-73
2020/12/29 01:59:44;;;;;;;1.60;1.20;;;;;;;-1.04;99.91;92859.81;1040314;28;20268;-73
2020/12/29 02:00:15;;;;;;;2.80;1.40;;;;;;;-1.05;99.98;92856.44;1032672;28;20029;-75
2020/12/29 02:00:45;;;;;;;2.10;1.30;;;;;;;-1.05;99.94;92861.66;1036728;28;20022;-75
2020/12/29 02:01:16;;;;;;;1.52;1.02;;;;;;;-1.00;99.57;92871.94;1036368;28;20370;-74
2020/12/29 02:01:46;;;;;;;1.67;1.15;;;;;;;-0.94;99.62;92864.88;1032628;28;20014;-71
2020/12/29 02:02:17;;;;;;;2.45;1.73;;;;;;;-0.90;99.34;92870.28;1036628;28;20018;-75
2020/12/29 02:02:49;;;;;;;1.80;1.30;;;;;;;-0.92;99.61;92870.56;1032387;28;20034;-73
2020/12/29 02:03:19;;;;;;;1.15;1.00;;;;;;;-0.98;98.99;92868.31;1036849;28;20021;-72
2020/12/29 02:03:50;;;;;;;0.98;0.90;;;;;;;-1.00;99.35;92871.19;1028337;28;20270;-74
2020/12/29 02:04:20;;;;;;;1.33;1.23;;;;;;;-1.04;99.56;92872.78;1028444;28;20031;-72
2020/12/29 02:04:51;;;;;;;2.90;1.50;;;;;;;-1.06;99.78;92869.69;1032413;28;20494;-74
2020/12/29 02:05:21;;;;;;;1.27;1.17;;;;;;;-1.10;99.84;92871.31;1032672;28;20018;-73
2020/12/29 02:05:52;;;;;;;1.95;1.40;;;;;;;-1.05;99.56;92871.22;1040555;28;20013;-73
2020/12/29 02:06:23;;;;;;;1.98;1.40;;;;;;;-1.07;99.93;92868.13;1036484;28;20454;-74
2020/12/29 02:06:53;;;;;;;1.23;1.13;;;;;;;-1.11;100.00;92869.75;1036521;28;20128;-75
2020/12/29 02:07:24;;;;;;;1.60;1.30;;;;;;;-1.12;100.00;92866.38;1036473;28;20252;-73
2020/12/29 02:07:54;;;;;;;1.38;1.13;;;;;;;-1.09;99.72;92863.25;1036744;28;20053;-75
2020/12/29 02:08:25;;;;;;;1.48;1.38;;;;;;;-1.07;99.91;92870.72;1036763;28;20014;-74
2020/12/29 02:08:55;;;;;;;1.20;1.10;;;;;;;-1.02;99.58;92868.84;1040701;28;20017;-74
2020/12/29 02:09:26;;;;;;;2.25;1.45;;;;;;;-1.06;99.91;92870.47;1036546;28;20513;-72
2020/12/29 02:09:56;;;;;;;1.50;1.27;;;;;;;-1.12;99.92;92868.97;1032517;28;20053;-74
2020/12/29 02:10:27;;;;;;;2.00;1.45;;;;;;;-1.10;100.00;92874.66;1036442;28;20014;-72
2020/12/29 02:10:57;;;;;;;2.05;1.83;;;;;;;-1.11;100.00;92869.75;1032601;28;20402;-76
2020/12/29 02:11:28;;;;;;;1.35;1.17;;;;;;;-1.11;99.83;92873.13;1032511;28;20033;-75
2020/12/29 02:11:58;;;;;;;2.45;1.35;;;;;;;-1.17;100.00;92868.25;1036136;28;20033;-74
2020/12/29 02:12:32;;;;;;;1.55;1.20;;;;;;;-1.15;100.00;92868.75;1036553;28;20036;-74
2020/12/29 02:13:02;;;;;;;1.77;1.33;;;;;;;-1.16;99.96;92862.81;1040535;28;20457;-73
2020/12/29 02:13:41;;;;;;;1.20;1.10;;;;;;;-1.18;100.00;92864.13;1040884;28;20701;-74
2020/12/29 02:14:11;;;;;;;1.95;1.25;;;;;;;-1.20;100.00;92861.81;1040907;28;20342;-76
2020/12/29 02:14:42;;;;;;;1.50;1.40;;;;;;;-1.25;100.00;92859.25;1040762;28;20267;-75
2020/12/29 02:15:12;;;;;;;1.52;1.42;;;;;;;-1.16;99.90;92857.59;1040825;28;20025;-74
2020/12/29 02:15:43;;;;;;;1.10;1.00;;;;;;;-1.15;99.67;92863.56;1040723;28;20017;-73
2020/12/29 02:16:13;;;;;;;1.30;1.20;;;;;;;-1.19;99.61;92858.16;1040989;28;20442;-75
2020/12/29 02:16:44;;;;;;;1.42;1.20;;;;;;;-1.17;99.31;92863.84;1040837;28;20025;-73
2020/12/29 02:17:14;;;;;;;1.90;1.35;;;;;;;-1.18;99.55;92869.31;1040919;28;20016;-75
2020/12/29 02:17:45;;;;;;;1.38;1.17;;;;;;;-1.20;99.89;92872.19;1040801;28;20017;-71
2020/12/29 02:18:16;;;;;;;1.20;1.10;;;;;;;-1.17;99.48;92874.22;1040991;28;20088;-75
2020/12/29 02:18:46;;;;;;;1.58;0.90;;;;;;;-1.15;99.15;92876.53;1040795;28;20026;-75
2020/12/29 02:19:17;;;;;;;1.85;1.23;;;;;;;-1.14;98.97;92876.28;1040558;28;20256;-73
2020/12/29 02:19:48;;;;;;;1.17;1.00;;;;;;;-1.18;99.11;92879.69;1040635;28;20017;-76
2020/12/29 02:20:19;;;;;;;1.50;1.40;;;;;;;-1.21;99.29;92878.41;1041025;28;20014;-73
2020/12/29 02:20:51;;;;;;;1.17;1.00;;;;;;;-1.24;99.63;92879.75;1040754;28;20381;-72
2020/12/29 02:21:21;;;;;;;1.33;1.10;;;;;;;-1.21;99.17;92874.00;1044605;28;20017;-73
2020/12/29 02:21:52;;;;;;;2.25;1.10;;;;;;;-1.20;99.35;92879.97;1044710;28;20284;-74
2020/12/29 02:22:24;;;;;;;1.90;1.10;;;;;;;-1.21;99.38;92876.59;1044620;28;20480;-74
2020/12/29 02:22:55;;;;;;;2.38;1.17;;;;;;;-1.22;99.35;92872.47;1044763;28;20773;-72
2020/12/29 02:23:26;;;;;;;1.05;0.95;;;;;;;-1.21;99.46;92875.81;1044646;28;20348;-73
2020/12/29 02:23:57;;;;;;;1.65;1.48;;;;;;;-1.26;99.57;92878.47;1044079;28;20314;-74
2020/12/29 02:24:28;;;;;;;1.50;1.10;;;;;;;-1.28;99.71;92877.97;1040975;28;20398;-73
2020/12/29 02:25:00;;;;;;;1.42;1.17;;;;;;;-1.31;99.48;92871.53;1040715;28;20428;-76